createdAt,value
2022-12-23T00:01:37.083Z,77.75
2022-12-23T00:04:07.002Z,77.58
2022-12-23T00:06:36.574Z,77.66
2022-12-23T00:09:05.186Z,77.89
2022-12-23T00:11:33.619Z,77.89
2022-12-23T00:14:21.909Z,77.84
2022-12-23T00:16:51.483Z,77.68
2022-12-23T00:19:21.319Z,77.57
2022-12-23T00:21:49.800Z,77.26
2022-12-23T00:24:19.066Z,77.10
2022-12-23T00:26:47.424Z,77.18
2022-12-23T00:29:15.934Z,77.01
2022-12-23T00:31:44.317Z,76.90
2022-12-23T00:34:13.194Z,77.10
2022-12-23T00:36:43.092Z,76.99
2022-12-23T00:39:30.960Z,77.16
2022-12-23T00:42:17.413Z,77.54
2022-12-23T00:44:46.064Z,77.63
2022-12-23T00:47:35.191Z,77.67
2022-12-23T00:50:02.435Z,77.76
2022-12-23T00:52:32.129Z,77.90
2022-12-23T00:55:00.418Z,78.11
2022-12-23T00:57:28.680Z,78.39
2022-12-23T00:59:57.024Z,78.59
2022-12-23T01:02:42.801Z,78.46
2022-12-23T01:05:29.715Z,78.31
2022-12-23T01:08:00.361Z,78.70
2022-12-23T01:10:28.708Z,78.40
2022-12-23T01:12:56.966Z,78.65
2022-12-23T01:15:25.388Z,78.66
2022-12-23T01:17:53.741Z,78.77
2022-12-23T01:20:22.256Z,78.78
2022-12-23T01:22:50.529Z,78.79
2022-12-23T01:25:20.235Z,78.33
2022-12-23T01:27:48.510Z,78.62
2022-12-23T01:30:16.984Z,78.59
2022-12-23T01:32:45.187Z,78.40
2022-12-23T01:35:14.484Z,78.41
2022-12-23T01:37:42.758Z,78.35
2022-12-23T01:40:11.777Z,78.45
2022-12-23T01:42:47.565Z,78.25
2022-12-23T01:45:19.496Z,78.49
2022-12-23T01:47:53.758Z,78.58
2022-12-23T01:50:27.012Z,78.36
2022-12-23T01:53:06.973Z,78.44
2022-12-23T01:55:40.015Z,78.29
2022-12-23T01:58:13.803Z,78.36
2022-12-23T02:01:01.201Z,78.67
2022-12-23T02:03:45.238Z,78.79
2022-12-23T02:06:37.801Z,78.80
2022-12-23T02:09:18.816Z,78.66
2022-12-23T02:12:22.593Z,78.48
2022-12-23T02:15:25.375Z,79.05
2022-12-23T02:18:06.635Z,79.01
2022-12-23T02:21:00.806Z,78.96
2022-12-23T02:24:17.205Z,78.67
2022-12-23T02:27:20.220Z,79.09
2022-12-23T02:30:25.365Z,79.09
2022-12-23T02:33:17.880Z,79.35
2022-12-23T02:35:54.601Z,79.44
2022-12-23T02:38:31.578Z,79.26
2022-12-23T02:41:09.809Z,79.19
2022-12-23T02:43:46.524Z,79.24
2022-12-23T02:46:23.635Z,79.29
2022-12-23T02:48:58.225Z,79.17
2022-12-23T02:51:32.667Z,79.20
2022-12-23T02:54:04.636Z,79.15
2022-12-23T02:56:36.441Z,79.12
2022-12-23T02:59:09.944Z,78.80
2022-12-23T03:01:41.201Z,78.77
2022-12-23T03:04:10.098Z,78.95
2022-12-23T03:06:41.787Z,79.31
2022-12-23T03:09:11.295Z,78.66
2022-12-23T03:11:51.130Z,78.55
2022-12-23T03:14:35.712Z,78.73
2022-12-23T03:17:19.022Z,78.55
2022-12-23T03:19:54.287Z,78.69
2022-12-23T03:22:27.058Z,78.75
2022-12-23T03:25:03.340Z,79.03
2022-12-23T03:27:38.413Z,78.91
2022-12-23T03:30:09.410Z,78.65
2022-12-23T03:32:45.093Z,78.62
2022-12-23T03:35:17.109Z,78.60
2022-12-23T03:37:50.202Z,78.15
2022-12-23T03:40:23.935Z,78.12
2022-12-23T03:42:56.322Z,77.96
2022-12-23T03:45:38.599Z,77.75
2022-12-23T03:48:16.673Z,77.35
2022-12-23T03:50:46.568Z,76.99
2022-12-23T03:53:19.920Z,76.82
2022-12-23T03:55:52.191Z,76.52
2022-12-23T03:58:30.377Z,76.34
2022-12-23T04:01:06.045Z,76.28
2022-12-23T04:03:42.897Z,76.19
2022-12-23T04:06:16.593Z,76.46
2022-12-23T04:08:47.499Z,76.21
2022-12-23T04:11:16.408Z,76.17
2022-12-23T04:13:44.900Z,76.00
2022-12-23T04:16:13.482Z,76.26
2022-12-23T04:18:43.364Z,76.00
2022-12-23T04:21:11.728Z,75.70
2022-12-23T04:23:40.409Z,75.95
2022-12-23T04:26:08.659Z,75.83
2022-12-23T04:28:36.937Z,75.51
2022-12-23T04:31:05.493Z,75.70
2022-12-23T04:33:33.918Z,75.54
2022-12-23T04:36:03.579Z,75.41
2022-12-23T04:38:31.896Z,75.49
2022-12-23T04:41:00.203Z,75.44
2022-12-23T04:43:28.621Z,75.37
2022-12-23T04:45:56.908Z,75.18
2022-12-23T04:48:25.327Z,75.01
2022-12-23T04:50:53.595Z,75.09
2022-12-23T04:53:23.334Z,74.92
2022-12-23T04:55:52.239Z,74.90
2022-12-23T04:58:22.223Z,74.96
2022-12-23T05:00:50.602Z,74.84
2022-12-23T05:03:19.086Z,74.83
2022-12-23T05:05:47.458Z,74.62
2022-12-23T05:08:15.703Z,71.47
2022-12-23T05:10:46.055Z,72.97
2022-12-23T05:13:14.426Z,73.64
2022-12-23T05:15:45.240Z,73.86
2022-12-23T05:18:13.949Z,74.28
2022-12-23T05:20:42.299Z,74.33
2022-12-23T05:23:11.129Z,74.23
2022-12-23T05:25:40.966Z,74.53
2022-12-23T05:28:10.811Z,74.33
2022-12-23T05:30:40.080Z,74.31
2022-12-23T05:33:08.484Z,74.28
2022-12-23T05:35:36.693Z,74.20
2022-12-23T05:38:05.006Z,74.22
2022-12-23T05:40:33.246Z,74.01
2022-12-23T05:43:02.255Z,74.14
2022-12-23T05:45:36.008Z,74.01
2022-12-23T05:48:04.767Z,74.15
2022-12-23T05:50:34.188Z,74.07
2022-12-23T05:53:04.299Z,73.98
2022-12-23T05:55:32.770Z,73.85
2022-12-23T05:58:01.101Z,73.79
2022-12-23T06:00:29.520Z,73.61
2022-12-23T06:03:00.349Z,73.76
2022-12-23T06:05:29.012Z,73.71
2022-12-23T06:07:57.256Z,73.63
2022-12-23T06:10:26.317Z,73.77
2022-12-23T06:12:54.626Z,73.74
2022-12-23T06:15:23.059Z,73.67
2022-12-23T06:17:51.758Z,73.75
2022-12-23T06:20:21.403Z,73.86
2022-12-23T06:22:49.690Z,73.99
2022-12-23T06:25:18.059Z,73.76
2022-12-23T06:27:46.318Z,73.85
2022-12-23T06:30:15.249Z,73.85
2022-12-23T06:32:43.613Z,73.64
2022-12-23T06:35:11.980Z,73.70
2022-12-23T06:37:42.614Z,73.95
2022-12-23T06:40:12.150Z,73.69
2022-12-23T06:42:41.416Z,73.94
2022-12-23T06:45:11.035Z,73.90
2022-12-23T06:47:39.345Z,74.14
2022-12-23T06:50:09.277Z,73.92
2022-12-23T06:52:37.506Z,74.35
2022-12-23T06:55:07.935Z,74.02
2022-12-23T06:57:36.294Z,74.12
2022-12-23T07:00:05.787Z,74.38
2022-12-23T07:02:34.540Z,74.23
2022-12-23T07:05:02.962Z,74.27
2022-12-23T07:07:32.325Z,74.42
2022-12-23T07:10:00.606Z,74.38
2022-12-23T07:12:30.352Z,74.72
2022-12-23T07:14:58.630Z,74.60
2022-12-23T07:17:26.869Z,74.43
2022-12-23T07:19:55.127Z,74.50
2022-12-23T07:22:23.581Z,74.70
2022-12-23T07:24:52.022Z,74.64
2022-12-23T07:27:20.313Z,74.54
2022-12-23T07:29:49.972Z,74.92
2022-12-23T07:32:19.228Z,74.99
2022-12-23T07:34:47.438Z,74.96
2022-12-23T07:37:15.692Z,74.98
2022-12-23T07:39:43.918Z,75.09
2022-12-23T07:45:02.749Z,75.15
2022-12-23T07:47:30.973Z,74.95
2022-12-23T07:49:59.270Z,74.89
2022-12-23T07:52:27.538Z,74.55
2022-12-23T07:54:55.798Z,74.81
2022-12-23T07:57:24.514Z,74.77
2022-12-23T07:59:52.789Z,74.72
2022-12-23T08:02:25.524Z,74.88
2022-12-23T08:04:53.983Z,74.72
2022-12-23T08:07:22.190Z,74.67
2022-12-23T08:09:50.542Z,74.73
2022-12-23T08:12:18.841Z,74.59
2022-12-23T08:14:48.524Z,74.69
2022-12-23T08:17:16.916Z,74.54
2022-12-23T08:19:46.818Z,74.49
2022-12-23T08:22:15.249Z,74.45
2022-12-23T08:24:43.573Z,74.29
2022-12-23T08:27:12.102Z,74.21
2022-12-23T08:29:40.781Z,74.48
2022-12-23T08:32:09.192Z,74.45
2022-12-23T08:34:39.648Z,74.23
2022-12-23T08:37:09.398Z,74.37
2022-12-23T08:39:37.772Z,74.26
2022-12-23T08:42:06.289Z,74.32
2022-12-23T08:44:34.620Z,74.24
2022-12-23T08:47:02.987Z,74.08
2022-12-23T08:49:31.460Z,74.22
2022-12-23T08:51:59.857Z,74.26
2022-12-23T08:54:29.648Z,74.42
2022-12-23T08:56:58.985Z,74.29
2022-12-23T08:59:28.734Z,74.32
2022-12-23T09:01:59.818Z,74.13
2022-12-23T09:04:28.293Z,74.43
2022-12-23T09:06:56.773Z,74.33
2022-12-23T09:09:25.133Z,74.33
2022-12-23T09:11:54.775Z,74.40
2022-12-23T09:14:23.078Z,74.45
2022-12-23T09:16:52.654Z,74.58
2022-12-23T09:19:21.030Z,74.15
2022-12-23T09:21:49.371Z,73.78
2022-12-23T09:24:17.599Z,73.43
2022-12-23T09:26:45.892Z,73.21
2022-12-23T09:29:15.559Z,72.81
2022-12-23T09:31:43.899Z,72.56
2022-12-23T09:34:12.935Z,72.50
2022-12-23T09:36:41.367Z,71.97
2022-12-23T09:39:11.600Z,71.79
2022-12-23T09:41:56.058Z,71.43
2022-12-23T09:44:50.159Z,71.67
2022-12-23T09:47:22.138Z,71.01
2022-12-23T09:49:53.925Z,70.11
2022-12-23T09:52:26.708Z,70.09
2022-12-23T09:54:56.673Z,70.15
2022-12-23T09:57:35.564Z,70.44
2022-12-23T10:00:11.842Z,70.65
2022-12-23T10:03:06.053Z,70.34
2022-12-23T10:05:43.923Z,70.21
2022-12-23T10:08:20.830Z,69.27
2022-12-23T10:10:52.547Z,68.67
2022-12-23T10:13:26.902Z,68.03
2022-12-23T10:15:59.751Z,68.19
2022-12-23T10:18:43.013Z,68.06
2022-12-23T10:21:16.896Z,67.43
2022-12-23T10:23:49.973Z,67.36
2022-12-23T10:26:27.149Z,66.55
2022-12-23T10:29:02.078Z,66.00
2022-12-23T10:31:43.229Z,65.47
2022-12-23T10:34:20.974Z,64.93
2022-12-23T10:36:59.808Z,64.11
2022-12-23T10:39:37.776Z,63.83
2022-12-23T10:42:16.846Z,63.45
2022-12-23T10:45:00.807Z,63.22
2022-12-23T10:47:45.676Z,61.98
2022-12-23T10:50:32.708Z,62.51
2022-12-23T10:53:04.381Z,62.18
2022-12-23T10:55:38.346Z,61.81
2022-12-23T10:58:10.099Z,61.56
2022-12-23T11:00:42.226Z,61.36
2022-12-23T11:03:19.966Z,61.25
2022-12-23T11:05:51.624Z,61.02
2022-12-23T11:08:22.736Z,61.03
2022-12-23T11:10:51.570Z,61.27
2022-12-23T11:13:38.027Z,60.89
2022-12-23T11:16:19.513Z,61.19
2022-12-23T11:18:58.235Z,61.32
2022-12-23T11:21:27.104Z,61.42
2022-12-23T11:24:18.475Z,61.59
2022-12-23T11:26:49.412Z,61.63
2022-12-23T11:29:23.926Z,62.44
2022-12-23T11:31:53.209Z,61.99
2022-12-23T11:34:25.457Z,61.44
2022-12-23T11:37:01.587Z,61.85
2022-12-23T11:39:35.921Z,61.68
2022-12-23T11:42:09.082Z,61.66
2022-12-23T11:44:41.922Z,62.02
2022-12-23T11:47:26.423Z,60.88
2022-12-23T11:49:57.550Z,60.57
2022-12-23T11:52:27.099Z,60.23
2022-12-23T11:54:57.260Z,60.23
2022-12-23T11:57:33.853Z,60.36
2022-12-23T12:00:05.363Z,59.21
2022-12-23T12:02:39.361Z,58.55
2022-12-23T12:05:22.669Z,58.86
2022-12-23T12:07:53.068Z,59.17
2022-12-23T12:10:23.887Z,58.82
2022-12-23T12:12:56.470Z,59.31
2022-12-23T12:15:34.971Z,59.37
2022-12-23T12:18:07.530Z,58.50
2022-12-23T12:20:40.786Z,58.88
2022-12-23T12:23:17.378Z,59.00
2022-12-23T12:25:50.760Z,59.49
2022-12-23T12:31:25.918Z,59.49
2022-12-23T12:34:01.680Z,58.81
2022-12-23T12:36:39.115Z,58.58
2022-12-23T12:39:16.603Z,57.99
2022-12-23T12:41:52.198Z,58.63
2022-12-23T12:44:31.456Z,58.52
2022-12-23T12:47:28.188Z,58.25
2022-12-23T12:50:00.908Z,58.17
2022-12-23T12:52:38.005Z,57.97
2022-12-23T12:55:13.884Z,57.71
2022-12-23T12:57:42.438Z,57.67
2022-12-23T13:00:16.002Z,57.46
2022-12-23T13:03:01.881Z,57.40
2022-12-23T13:05:54.856Z,57.89
2022-12-23T13:08:43.790Z,57.13
2022-12-23T13:11:26.523Z,57.33
2022-12-23T13:14:06.949Z,57.96
2022-12-23T13:16:46.211Z,57.63
2022-12-23T13:19:22.684Z,58.12
2022-12-23T13:21:56.598Z,58.44
2022-12-23T13:24:33.183Z,58.25
2022-12-23T13:27:09.033Z,58.35
2022-12-23T13:29:54.523Z,57.89
2022-12-23T13:32:39.365Z,58.09
2022-12-23T13:35:26.544Z,58.08
2022-12-23T13:38:01.406Z,57.89
2022-12-23T13:40:39.685Z,58.19
2022-12-23T13:43:14.753Z,58.28
2022-12-23T13:45:45.428Z,57.83
2022-12-23T13:48:33.054Z,58.16
2022-12-23T13:51:09.071Z,58.32
2022-12-23T13:53:50.856Z,58.01
2022-12-23T13:56:28.223Z,57.89
2022-12-23T13:58:57.363Z,58.35
2022-12-23T14:01:43.797Z,57.94
2022-12-23T14:04:37.017Z,57.25
2022-12-23T14:07:19.559Z,57.01
2022-12-23T14:09:52.460Z,56.63
2022-12-23T14:12:28.099Z,56.86
2022-12-23T14:15:19.692Z,56.59
2022-12-23T14:18:02.535Z,56.44
2022-12-23T14:20:43.189Z,56.42
2022-12-23T14:23:26.168Z,56.04
2022-12-23T14:26:11.040Z,56.33
2022-12-23T14:28:55.215Z,56.86
2022-12-23T14:31:32.860Z,56.57
2022-12-23T14:34:07.519Z,56.91
2022-12-23T14:36:36.052Z,56.96
2022-12-23T14:39:33.270Z,57.15
2022-12-23T14:42:07.525Z,57.33
2022-12-23T14:44:50.507Z,57.68
2022-12-23T14:47:34.727Z,58.10
2022-12-23T14:50:38.200Z,58.45
2022-12-23T14:53:21.857Z,58.61
2022-12-23T14:55:52.098Z,58.60
2022-12-23T14:58:49.219Z,58.43
2022-12-23T15:01:22.059Z,58.86
2022-12-23T15:04:00.768Z,58.83
2022-12-23T15:06:36.565Z,59.03
2022-12-23T15:09:07.530Z,59.02
2022-12-23T15:11:37.837Z,59.08
2022-12-23T15:14:11.632Z,59.10
2022-12-23T15:16:45.237Z,59.22
2022-12-23T15:19:19.270Z,59.07
2022-12-23T15:21:54.488Z,58.81
2022-12-23T15:24:28.676Z,58.91
2022-12-23T15:27:25.154Z,58.55
2022-12-23T15:29:51.524Z,58.75
2022-12-23T15:32:23.775Z,58.03
2022-12-23T15:34:55.937Z,57.67
2022-12-23T15:37:28.971Z,57.63
2022-12-23T15:40:09.432Z,58.01
2022-12-23T15:42:51.123Z,57.95
2022-12-23T15:45:35.917Z,58.10
2022-12-23T15:48:08.737Z,57.98
2022-12-23T15:50:41.842Z,58.19
2022-12-23T15:53:12.001Z,57.93
2022-12-23T15:55:41.656Z,58.46
2022-12-23T15:58:18.033Z,58.39
2022-12-23T16:00:54.313Z,58.49
2022-12-23T16:03:30.925Z,58.69
2022-12-23T16:06:08.549Z,58.63
2022-12-23T16:08:36.923Z,58.94
2022-12-23T16:11:13.367Z,59.26
2022-12-23T16:13:47.255Z,59.59
2022-12-23T16:16:33.120Z,59.83
2022-12-23T16:19:03.078Z,60.26
2022-12-23T16:21:33.665Z,60.35
2022-12-23T16:24:04.375Z,60.95
2022-12-23T16:26:33.232Z,60.95
2022-12-23T16:29:02.531Z,61.14
2022-12-23T16:31:34.246Z,61.75
2022-12-23T16:34:08.468Z,61.63
2022-12-23T16:36:37.881Z,62.06
2022-12-23T16:39:17.579Z,61.70
2022-12-23T16:41:46.379Z,62.41
2022-12-23T16:44:16.002Z,62.40
2022-12-23T16:46:47.785Z,62.38
2022-12-23T16:49:19.928Z,62.56
2022-12-23T16:51:49.451Z,63.06
2022-12-23T16:54:20.053Z,63.21
2022-12-23T16:56:48.426Z,63.79
2022-12-23T16:59:17.278Z,63.94
2022-12-23T17:01:47.684Z,64.08
2022-12-23T17:04:19.194Z,64.18
2022-12-23T17:06:48.799Z,64.77
2022-12-23T17:09:17.411Z,65.20
2022-12-23T17:11:48.209Z,65.45
2022-12-23T17:14:20.806Z,65.53
2022-12-23T17:16:52.437Z,65.80
2022-12-23T17:19:28.407Z,66.07
2022-12-23T17:22:03.685Z,66.00
2022-12-23T17:24:34.517Z,66.70
2022-12-23T17:27:03.503Z,66.42
2022-12-23T17:29:31.881Z,66.89
2022-12-23T17:32:00.838Z,66.86
2022-12-23T17:34:31.254Z,67.00
2022-12-23T17:37:01.308Z,67.01
2022-12-23T17:39:29.655Z,67.11
2022-12-23T17:41:58.941Z,67.07
2022-12-23T17:44:27.224Z,67.42
2022-12-23T17:46:55.545Z,67.58
2022-12-23T17:49:23.858Z,67.47
2022-12-23T17:51:53.607Z,67.75
2022-12-23T17:54:24.173Z,67.74
2022-12-23T17:56:53.141Z,67.40
2022-12-23T17:59:21.872Z,67.19
2022-12-23T18:01:51.414Z,67.38
2022-12-23T18:04:24.937Z,67.20
2022-12-23T18:06:56.204Z,67.04
2022-12-23T18:09:26.665Z,67.32
2022-12-23T18:11:57.451Z,67.32
2022-12-23T18:14:28.814Z,67.96
2022-12-23T18:16:58.148Z,68.02
2022-12-23T18:19:26.712Z,67.83
2022-12-23T18:21:56.734Z,68.11
2022-12-23T18:24:25.186Z,68.25
2022-12-23T18:26:53.429Z,68.55
2022-12-23T18:29:22.385Z,68.70
2022-12-23T18:31:52.436Z,68.82
2022-12-23T18:34:24.368Z,69.07
2022-12-23T18:36:52.972Z,69.21
2022-12-23T18:39:22.809Z,69.11
2022-12-23T18:41:52.227Z,69.02
2022-12-23T18:44:23.217Z,69.32
2022-12-23T18:46:51.750Z,69.57
2022-12-23T18:49:23.892Z,69.71
2022-12-23T18:51:52.198Z,69.76
2022-12-23T18:54:20.962Z,69.87
2022-12-23T18:56:51.307Z,69.80
2022-12-23T18:59:29.645Z,70.01
2022-12-23T19:01:59.476Z,69.96
2022-12-23T19:04:28.570Z,70.10
2022-12-23T19:06:58.430Z,70.37
2022-12-23T19:09:27.994Z,70.24
2022-12-23T19:11:58.776Z,69.74
2022-12-23T19:14:27.489Z,69.88
2022-12-23T19:16:56.199Z,70.25
2022-12-23T19:19:24.874Z,70.34
2022-12-23T19:21:53.608Z,70.86
2022-12-23T19:24:22.292Z,70.90
2022-12-23T19:26:50.668Z,70.77
2022-12-23T19:29:20.433Z,70.93
2022-12-23T19:31:48.776Z,71.30
2022-12-23T19:34:17.122Z,71.20
2022-12-23T19:36:45.613Z,70.87
2022-12-23T19:39:16.965Z,70.73
2022-12-23T19:41:45.929Z,71.25
2022-12-23T19:44:14.624Z,71.28
2022-12-23T19:46:44.424Z,71.45
2022-12-23T19:49:19.783Z,71.79
2022-12-23T19:51:49.589Z,72.26
2022-12-23T19:54:21.352Z,72.46
2022-12-23T19:56:52.384Z,72.91
2022-12-23T19:59:22.891Z,72.63
2022-12-23T20:01:53.227Z,72.70
2022-12-23T20:04:24.389Z,72.91
2022-12-23T20:06:53.541Z,73.37
2022-12-23T20:09:25.363Z,73.00
2022-12-23T20:11:54.992Z,72.97
2022-12-23T20:14:29.035Z,73.72
2022-12-23T20:17:04.333Z,73.84
2022-12-23T20:19:34.299Z,73.25
2022-12-23T20:22:03.506Z,73.79
2022-12-23T20:24:33.343Z,73.86
2022-12-23T20:27:05.121Z,73.73
2022-12-23T20:29:36.779Z,73.62
2022-12-23T20:32:07.118Z,73.88
2022-12-23T20:34:39.528Z,74.29
2022-12-23T20:37:08.743Z,73.97
2022-12-23T20:39:37.627Z,74.75
2022-12-23T20:42:32.851Z,74.38
2022-12-23T20:45:07.573Z,74.17
2022-12-23T20:48:38.763Z,73.53
2022-12-23T20:50:48.818Z,73.28
2022-12-23T20:53:21.733Z,73.41
2022-12-23T20:55:52.396Z,73.71
2022-12-23T20:58:38.744Z,73.96
2022-12-23T21:01:11.393Z,73.60
2022-12-23T21:03:44.450Z,73.18
2022-12-23T21:06:13.964Z,73.43
2022-12-23T21:08:44.891Z,73.94
2022-12-23T21:11:14.285Z,73.83
2022-12-23T21:13:44.001Z,73.91
2022-12-23T21:16:14.304Z,73.97
2022-12-23T21:18:46.746Z,74.00
2022-12-23T21:21:32.143Z,73.99
2022-12-23T21:24:05.209Z,74.08
2022-12-23T21:26:35.546Z,73.96
2022-12-23T21:29:07.580Z,73.89
2022-12-23T21:31:38.912Z,73.09
2022-12-23T21:34:10.144Z,73.33
2022-12-23T21:36:40.065Z,73.55
2022-12-23T21:39:09.680Z,73.59
2022-12-23T21:41:41.730Z,73.69
2022-12-23T21:44:11.398Z,73.28
2022-12-23T21:46:40.826Z,73.32
2022-12-23T21:49:12.521Z,73.71
2022-12-23T21:51:41.688Z,73.75
2022-12-23T21:54:11.111Z,74.29
2022-12-23T21:56:44.640Z,74.42
2022-12-23T21:59:17.908Z,74.59
2022-12-23T22:01:47.802Z,74.79
2022-12-23T22:04:17.613Z,75.28
2022-12-23T22:06:46.438Z,74.84
2022-12-23T22:09:19.071Z,74.63
2022-12-23T22:11:48.294Z,74.48
2022-12-23T22:14:19.309Z,74.04
2022-12-23T22:16:48.035Z,74.44
2022-12-23T22:19:18.098Z,73.94
2022-12-23T22:21:46.469Z,73.82
2022-12-23T22:24:14.749Z,73.69
2022-12-23T22:26:43.067Z,74.30
2022-12-23T22:29:12.718Z,74.24
2022-12-23T22:31:44.795Z,74.35
2022-12-23T22:34:15.565Z,74.55
2022-12-23T22:36:45.740Z,74.28
2022-12-23T22:39:20.682Z,74.37
2022-12-23T22:41:50.798Z,74.53
2022-12-23T22:44:19.527Z,74.54
2022-12-23T22:46:48.296Z,74.56
2022-12-23T22:49:17.826Z,74.57
2022-12-23T22:51:48.142Z,74.46
2022-12-23T22:54:16.931Z,74.59
2022-12-23T22:56:46.189Z,74.82
2022-12-23T22:59:21.963Z,74.43
2022-12-23T23:01:52.497Z,74.73
2022-12-23T23:04:21.681Z,74.85
2022-12-23T23:06:52.189Z,75.14
2022-12-23T23:09:23.618Z,74.94
2022-12-23T23:11:52.763Z,75.23
2022-12-23T23:14:21.650Z,75.11
2022-12-23T23:16:50.701Z,74.90
2022-12-23T23:19:23.184Z,75.00
2022-12-23T23:21:53.753Z,74.35
2022-12-23T23:24:27.742Z,74.29
2022-12-23T23:26:59.929Z,74.55
2022-12-23T23:29:30.053Z,74.31
2022-12-23T23:31:58.697Z,74.73
2022-12-23T23:34:27.494Z,75.22
2022-12-23T23:36:58.066Z,75.31
2022-12-23T23:39:27.143Z,75.81
2022-12-23T23:41:56.088Z,75.71
2022-12-23T23:44:25.057Z,75.76
2022-12-23T23:46:53.811Z,75.96
2022-12-23T23:49:24.098Z,76.10
2022-12-23T23:51:52.892Z,75.87
2022-12-23T23:54:23.236Z,75.52
2022-12-23T23:56:52.339Z,75.54
2022-12-23T23:59:22.214Z,75.46
